Skip Navigation LinksHome page > Weather > Current weather Skip Navigation Links

Current Weather

Central Park, New York

For information only: do not use for flight planning or navigation.
Latest weather
Observation time Monday, July 23, 2018 8:51 AM EDT
Local time Monday, July 23, 2018 9:21 AM EDT
Flight conditions Instrument Meteorological Conditions
Winds
Wind direction South (180°)
Wind speed 5 mph
Visibility 6 mi.
Present weather mist
Sky condition
Ceiling 800 ft. overcast
Cloud layer overcast 800 ft.
Temperature 73°F
Dewpoint 72°F
Altimeter 30.12 in.Hg
Precipitation
Rain ended 8:44 AM
Precipitation last hour 0.01 in.
Derived measurements
Relative humidity 96%
Density altitude 1198 ft.
Sea-level pressure 30.09 in.Hg
Remarks
Fully automated report.
System requires maintenance.
Automated weather observing station with precipitation discriminator.
METAR KNYC 231251Z AUTO 18004KT 6SM BR OVC008 23/22 A3012 RMK AO2 RAE44 SLP188 P0001 T02280222 $

Settings

Location code

InnerDrive.Weather 4.0.6770.0 Release CLR 4.0.30319.42000
Copyright ©2018 Inner Drive Technology. All rights reserved. Portions Copyright ©1986-2018 David Braverman.

Find weather

Site navigation


Skip Navigation Links

Place info

Page info

PayPal - The safer, easier way to pay online!

Return home.

Copyright ©2018 Inner Drive Technology. Purveyors of fine, hand-crafted computer software. Page printed 2018-07-23T13:21:20 UTC.